createdAt,value
2018-06-04T00:00:27.084Z,16.48
2018-06-04T00:01:26.964Z,16.50
2018-06-04T00:02:26.874Z,16.54
2018-06-04T00:03:26.785Z,16.54
2018-06-04T00:04:26.694Z,16.48
2018-06-04T00:05:26.610Z,16.47
2018-06-04T00:06:26.545Z,16.33
2018-06-04T00:07:26.425Z,16.18
2018-06-04T00:08:26.337Z,16.37
2018-06-04T00:09:26.247Z,16.14
2018-06-04T00:10:26.160Z,16.11
2018-06-04T00:11:26.099Z,15.92
2018-06-04T00:12:25.980Z,15.64
2018-06-04T00:13:25.887Z,15.68
2018-06-04T00:14:25.819Z,15.55
2018-06-04T00:15:25.713Z,15.43
2018-06-04T00:16:25.655Z,15.35
2018-06-04T00:17:25.533Z,15.25
2018-06-04T00:18:25.445Z,15.19
2018-06-04T00:19:25.355Z,15.18
2018-06-04T00:20:25.942Z,15.07
2018-06-04T00:21:25.205Z,14.97
2018-06-04T00:22:25.088Z,14.82
2018-06-04T00:23:25.000Z,14.75
2018-06-04T00:24:24.907Z,14.71
2018-06-04T00:25:24.819Z,14.71
2018-06-04T00:26:25.450Z,14.61
2018-06-04T00:27:24.640Z,14.57
2018-06-04T00:28:24.550Z,14.46
2018-06-04T00:29:24.458Z,14.42
2018-06-04T00:30:24.370Z,14.34
2018-06-04T00:31:24.308Z,14.20
2018-06-04T00:32:24.222Z,14.21
2018-06-04T00:33:24.098Z,14.21
2018-06-04T00:34:24.013Z,14.20
2018-06-04T00:35:23.927Z,14.13
2018-06-04T00:36:23.862Z,14.04
2018-06-04T00:37:23.746Z,13.87
2018-06-04T00:38:23.656Z,14.02
2018-06-04T00:39:23.564Z,13.88
2018-06-04T00:40:23.474Z,14.11
2018-06-04T00:41:23.412Z,14.35
2018-06-04T00:42:23.292Z,14.57
2018-06-04T00:43:23.202Z,14.72
2018-06-04T00:44:23.119Z,14.59
2018-06-04T00:45:23.023Z,14.98
2018-06-04T00:46:22.964Z,15.15
2018-06-04T00:47:22.846Z,15.19
2018-06-04T00:48:22.753Z,15.44
2018-06-04T00:49:22.668Z,15.52
2018-06-04T00:50:22.617Z,15.59
2018-06-04T00:51:22.517Z,15.59
2018-06-04T00:52:22.393Z,15.66
2018-06-04T00:53:22.305Z,15.78
2018-06-04T00:54:22.217Z,15.81
2018-06-04T00:55:22.125Z,15.95
2018-06-04T00:56:22.065Z,16.06
2018-06-04T00:57:21.947Z,16.01
2018-06-04T00:58:21.855Z,16.11
2018-06-04T00:59:21.764Z,16.13
2018-06-04T01:00:21.674Z,16.23
2018-06-04T01:01:21.591Z,16.11
2018-06-04T01:02:21.523Z,16.23
2018-06-04T01:03:21.403Z,16.34
2018-06-04T01:04:21.323Z,16.26
2018-06-04T01:05:21.226Z,16.33
2018-06-04T01:06:21.900Z,16.33
2018-06-04T01:07:21.073Z,16.50
2018-06-04T01:08:20.954Z,16.48
2018-06-04T01:09:20.865Z,16.51
2018-06-04T01:10:20.777Z,16.42
2018-06-04T01:11:22.404Z,16.32
2018-06-04T01:12:20.629Z,16.29
2018-06-04T01:13:20.507Z,16.27
2018-06-04T01:14:20.420Z,16.41
2018-06-04T01:15:20.328Z,16.45
2018-06-04T01:16:20.238Z,16.45
2018-06-04T01:17:20.274Z,16.42
2018-06-04T01:18:20.057Z,16.27
2018-06-04T01:19:19.971Z,16.17
2018-06-04T01:20:19.881Z,16.11
2018-06-04T01:21:19.791Z,15.95
2018-06-04T01:22:19.734Z,15.78
2018-06-04T01:23:19.612Z,15.78
2018-06-04T01:24:19.522Z,15.62
2018-06-04T01:25:19.432Z,15.41
2018-06-04T01:26:19.345Z,15.34
2018-06-04T01:27:19.286Z,15.15
2018-06-04T01:28:19.163Z,15.12
2018-06-04T01:29:19.075Z,14.94
2018-06-04T01:30:18.989Z,14.87
2018-06-04T01:31:18.989Z,14.82
2018-06-04T01:32:18.836Z,14.67
2018-06-04T01:33:18.717Z,14.64
2018-06-04T01:34:18.628Z,14.46
2018-06-04T01:35:18.540Z,14.53
2018-06-04T01:36:18.447Z,14.44
2018-06-04T01:37:18.390Z,14.41
2018-06-04T01:38:18.381Z,14.29
2018-06-04T01:39:18.183Z,14.29
2018-06-04T01:40:18.093Z,14.20
2018-06-04T01:41:17.996Z,14.23
2018-06-04T01:42:17.940Z,14.34
2018-06-04T01:43:18.411Z,14.42
2018-06-04T01:44:17.733Z,14.56
2018-06-04T01:45:17.733Z,14.72
2018-06-04T01:46:17.550Z,14.83
2018-06-04T01:47:17.492Z,15.20
2018-06-04T01:48:17.374Z,15.18
2018-06-04T01:49:17.284Z,15.38
2018-06-04T01:50:17.193Z,15.48
2018-06-04T01:51:17.104Z,15.49
2018-06-04T01:52:17.134Z,15.51
2018-06-04T01:53:16.927Z,15.55
2018-06-04T01:54:16.834Z,15.46
2018-06-04T01:55:16.743Z,15.46
2018-06-04T01:56:16.655Z,15.44
2018-06-04T01:57:16.595Z,15.46
2018-06-04T01:58:16.475Z,15.46
2018-06-04T01:59:16.489Z,15.51
2018-06-04T02:00:16.297Z,15.62
2018-06-04T02:01:16.207Z,15.53
2018-06-04T02:02:16.147Z,15.56
2018-06-04T02:03:16.028Z,15.59
2018-06-04T02:04:15.936Z,15.59
2018-06-04T02:05:15.850Z,15.51
2018-06-04T02:06:15.847Z,15.46
2018-06-04T02:07:15.667Z,15.35
2018-06-04T02:08:15.605Z,15.37
2018-06-04T02:09:15.487Z,15.16
2018-06-04T02:10:15.402Z,15.18
2018-06-04T02:11:15.309Z,15.18
2018-06-04T02:12:15.917Z,15.15
2018-06-04T02:13:15.251Z,15.27
2018-06-04T02:14:15.037Z,15.19
2018-06-04T02:15:14.953Z,15.19
2018-06-04T02:16:14.859Z,15.19
2018-06-04T02:17:14.770Z,15.19
2018-06-04T02:18:16.419Z,15.25
2018-06-04T02:19:14.590Z,15.22
2018-06-04T02:20:14.590Z,15.16
2018-06-04T02:21:14.409Z,15.11
2018-06-04T02:22:14.319Z,14.97
2018-06-04T02:23:14.260Z,14.75
2018-06-04T02:24:14.140Z,14.67
2018-06-04T02:25:14.050Z,14.59
2018-06-04T02:26:13.965Z,14.49
2018-06-04T02:27:13.961Z,14.44
2018-06-04T02:28:13.809Z,14.38
2018-06-04T02:29:13.693Z,14.31
2018-06-04T02:30:13.606Z,14.21
2018-06-04T02:31:13.520Z,14.19
2018-06-04T02:32:13.423Z,14.17
2018-06-04T02:33:13.358Z,14.12
2018-06-04T02:34:13.334Z,13.98
2018-06-04T02:35:13.927Z,14.06
2018-06-04T02:36:13.064Z,13.87
2018-06-04T02:37:12.975Z,13.88
2018-06-04T02:38:12.912Z,13.93
2018-06-04T02:39:12.792Z,13.90
2018-06-04T02:40:12.721Z,13.84
2018-06-04T02:41:12.612Z,13.88
2018-06-04T02:42:12.523Z,13.93
2018-06-04T02:43:12.469Z,13.90
2018-06-04T02:44:12.343Z,13.84
2018-06-04T02:45:12.254Z,13.93
2018-06-04T02:46:12.162Z,13.73
2018-06-04T02:47:12.077Z,13.81
2018-06-04T02:48:12.099Z,13.79
2018-06-04T02:49:11.892Z,13.68
2018-06-04T02:50:11.856Z,13.62
2018-06-04T02:51:11.714Z,13.75
2018-06-04T02:52:11.637Z,13.69
2018-06-04T02:53:11.561Z,13.72
2018-06-04T02:54:11.537Z,13.72
2018-06-04T02:55:11.351Z,13.83
2018-06-04T02:56:11.264Z,13.73
2018-06-04T02:57:11.169Z,13.80
2018-06-04T02:58:11.110Z,13.79
2018-06-04T02:59:10.988Z,13.71
2018-06-04T03:00:10.901Z,13.69
2018-06-04T03:01:10.814Z,13.68
2018-06-04T03:02:10.720Z,13.62
2018-06-04T03:03:10.661Z,13.61
2018-06-04T03:04:11.432Z,13.61
2018-06-04T03:05:10.449Z,13.63
2018-06-04T03:06:10.359Z,13.63
2018-06-04T03:07:10.268Z,13.46
2018-06-04T03:08:10.277Z,13.59
2018-06-04T03:09:10.117Z,13.47
2018-06-04T03:10:09.997Z,13.43
2018-06-04T03:11:10.433Z,13.46
2018-06-04T03:12:09.819Z,13.50
2018-06-04T03:13:09.749Z,13.48
2018-06-04T03:14:09.669Z,13.50
2018-06-04T03:15:09.548Z,13.46
2018-06-04T03:16:09.457Z,13.50
2018-06-04T03:17:09.366Z,13.48
2018-06-04T03:18:09.281Z,13.48
2018-06-04T03:19:09.219Z,13.61
2018-06-04T03:20:09.094Z,13.63
2018-06-04T03:21:09.006Z,13.65
2018-06-04T03:22:08.919Z,13.71
2018-06-04T03:23:08.830Z,13.79
2018-06-04T03:24:08.766Z,13.87
2018-06-04T03:25:08.645Z,13.88
2018-06-04T03:26:08.551Z,13.87
2018-06-04T03:27:08.460Z,13.91
2018-06-04T03:28:08.373Z,14.02
2018-06-04T03:29:08.314Z,13.88
2018-06-04T03:30:08.192Z,13.86
2018-06-04T03:31:08.128Z,13.98
2018-06-04T03:32:08.012Z,14.01
2018-06-04T03:33:07.920Z,13.87
2018-06-04T03:34:07.863Z,13.94
2018-06-04T03:35:07.746Z,13.93
2018-06-04T03:36:07.647Z,13.90
2018-06-04T03:37:07.556Z,13.99
2018-06-04T03:38:07.469Z,13.94
2018-06-04T03:39:07.408Z,13.91
2018-06-04T03:40:07.290Z,14.01
2018-06-04T03:41:07.197Z,14.02
2018-06-04T03:42:07.111Z,14.05
2018-06-04T03:43:07.015Z,14.16
2018-06-04T03:44:06.960Z,14.26
2018-06-04T03:45:06.833Z,14.34
2018-06-04T03:46:06.747Z,14.36
2018-06-04T03:47:06.656Z,14.45
2018-06-04T03:48:06.569Z,14.44
2018-06-04T03:49:06.504Z,14.48
2018-06-04T03:50:06.387Z,14.46
2018-06-04T03:51:06.296Z,14.41
2018-06-04T03:52:06.229Z,14.39
2018-06-04T03:53:06.113Z,14.45
2018-06-04T03:54:06.056Z,14.41
2018-06-04T03:55:05.936Z,14.35
2018-06-04T03:56:05.842Z,14.31
2018-06-04T03:57:05.751Z,14.35
2018-06-04T03:58:05.951Z,14.34
2018-06-04T03:59:05.605Z,14.34
2018-06-04T04:00:05.483Z,14.34
2018-06-04T04:01:05.392Z,14.17
2018-06-04T04:02:05.302Z,14.24
2018-06-04T04:03:05.210Z,14.21
2018-06-04T04:04:05.161Z,14.20
2018-06-04T04:05:05.051Z,14.17
2018-06-04T04:06:04.946Z,14.08
2018-06-04T04:07:04.854Z,14.12
2018-06-04T04:08:05.444Z,14.24
2018-06-04T04:09:04.700Z,14.05
2018-06-04T04:10:04.583Z,14.21
2018-06-04T04:11:04.498Z,14.20
2018-06-04T04:12:04.400Z,14.16
2018-06-04T04:13:04.312Z,14.24
2018-06-04T04:14:04.251Z,14.29
2018-06-04T04:15:04.130Z,14.34
2018-06-04T04:16:04.052Z,14.35
2018-06-04T04:17:03.959Z,14.48
2018-06-04T04:18:03.864Z,14.45
2018-06-04T04:19:03.776Z,14.59
2018-06-04T04:20:03.717Z,14.61
2018-06-04T04:21:03.593Z,14.71
2018-06-04T04:22:03.507Z,14.69
2018-06-04T04:23:03.417Z,14.82
2018-06-04T04:24:03.326Z,14.69
2018-06-04T04:25:03.266Z,14.74
2018-06-04T04:26:03.156Z,14.87
2018-06-04T04:27:03.057Z,14.91
2018-06-04T04:28:02.987Z,14.87
2018-06-04T04:29:02.883Z,15.00
2018-06-04T04:30:02.819Z,15.05
2018-06-04T04:31:02.699Z,15.09
2018-06-04T04:32:02.609Z,15.03
2018-06-04T04:33:02.610Z,15.09
2018-06-04T04:34:02.435Z,15.09
2018-06-04T04:35:02.374Z,15.09
2018-06-04T04:36:02.249Z,15.16
2018-06-04T04:37:02.163Z,15.11
2018-06-04T04:38:02.073Z,15.16
2018-06-04T04:39:01.983Z,15.27
2018-06-04T04:40:02.017Z,15.33
2018-06-04T04:41:02.454Z,15.33
2018-06-04T04:42:01.715Z,15.49
2018-06-04T04:43:01.629Z,15.64
2018-06-04T04:44:01.539Z,15.59
2018-06-04T04:45:01.481Z,15.71
2018-06-04T04:46:02.006Z,15.70
2018-06-04T04:47:01.479Z,15.84
2018-06-04T04:48:01.181Z,15.92
2018-06-04T04:49:01.094Z,16.08
2018-06-04T04:50:01.031Z,16.07
2018-06-04T04:51:00.914Z,16.16
2018-06-04T04:52:00.824Z,16.23
2018-06-04T04:53:00.737Z,16.42
2018-06-04T04:54:00.741Z,16.47
2018-06-04T04:55:00.592Z,16.51
2018-06-04T04:56:00.473Z,16.50
2018-06-04T04:57:00.383Z,16.60
2018-06-04T04:58:00.293Z,16.70
2018-06-04T04:59:00.206Z,16.77
2018-06-04T05:00:00.148Z,16.84
2018-06-04T05:01:00.120Z,16.81
2018-06-04T05:01:59.947Z,16.95
2018-06-04T05:02:59.851Z,16.90
2018-06-04T05:03:59.765Z,16.98
2018-06-04T05:04:59.709Z,17.03
2018-06-04T05:05:59.588Z,17.06
2018-06-04T05:06:59.499Z,17.03
2018-06-04T05:07:59.508Z,17.15
2018-06-04T05:08:59.324Z,17.18
2018-06-04T05:09:59.268Z,17.20
2018-06-04T05:10:59.151Z,17.21
2018-06-04T05:11:59.063Z,17.21
2018-06-04T05:12:58.973Z,17.35
2018-06-04T05:13:58.883Z,17.46
2018-06-04T05:14:58.920Z,17.42
2018-06-04T05:15:58.708Z,17.46
2018-06-04T05:16:58.622Z,17.40
2018-06-04T05:17:58.532Z,17.53
2018-06-04T05:18:58.448Z,17.58
2018-06-04T05:19:58.387Z,17.66
2018-06-04T05:20:58.275Z,17.79
2018-06-04T05:21:58.280Z,17.76
2018-06-04T05:22:58.095Z,17.73
2018-06-04T05:23:58.011Z,17.83
2018-06-04T05:24:57.950Z,17.98
2018-06-04T05:25:57.838Z,17.94
2018-06-04T05:26:57.746Z,18.09
2018-06-04T05:27:57.658Z,18.29
2018-06-04T05:28:57.664Z,18.26
2018-06-04T05:29:57.490Z,18.31
2018-06-04T05:30:57.431Z,18.46
2018-06-04T05:31:57.310Z,18.54
2018-06-04T05:32:57.223Z,18.56
2018-06-04T05:33:57.141Z,18.68
2018-06-04T05:34:57.053Z,18.53
2018-06-04T05:35:57.086Z,18.74
2018-06-04T05:36:56.880Z,18.83
2018-06-04T05:37:56.792Z,18.89
2018-06-04T05:38:57.474Z,18.91
2018-06-04T05:39:56.618Z,19.07
2018-06-04T05:40:56.572Z,19.06
2018-06-04T05:41:56.442Z,19.13
2018-06-04T05:42:56.360Z,19.24
2018-06-04T05:43:56.277Z,19.12
2018-06-04T05:44:56.187Z,19.23
2018-06-04T05:45:56.131Z,19.12
2018-06-04T05:46:56.012Z,19.09
2018-06-04T05:47:55.926Z,19.02
2018-06-04T05:48:55.840Z,19.01
2018-06-04T05:49:55.771Z,19.01
2018-06-04T05:50:55.697Z,19.06
2018-06-04T05:51:55.580Z,19.12
2018-06-04T05:52:55.499Z,19.20
2018-06-04T05:53:55.409Z,19.16
2018-06-04T05:54:55.324Z,19.24
2018-06-04T05:55:55.274Z,19.25
2018-06-04T05:56:55.148Z,19.28
2018-06-04T05:57:55.062Z,19.28
2018-06-04T05:58:54.979Z,19.45
2018-06-04T05:59:54.892Z,19.40
2018-06-04T06:00:54.836Z,19.45
2018-06-04T06:01:55.532Z,19.45
2018-06-04T06:02:54.635Z,19.46
2018-06-04T06:03:54.546Z,19.50
2018-06-04T06:04:54.463Z,19.57
2018-06-04T06:05:54.408Z,19.57
2018-06-04T06:06:54.291Z,19.72
2018-06-04T06:07:54.206Z,19.76
2018-06-04T06:08:54.119Z,19.71
2018-06-04T06:09:54.032Z,19.83
2018-06-04T06:10:53.983Z,19.94
2018-06-04T06:11:53.864Z,20.08
2018-06-04T06:12:53.776Z,20.15
2018-06-04T06:13:53.704Z,20.22
2018-06-04T06:14:53.607Z,20.30
2018-06-04T06:15:53.551Z,20.35
2018-06-04T06:16:53.435Z,20.42
2018-06-04T06:17:53.349Z,20.54
2018-06-04T06:18:53.264Z,20.40
2018-06-04T06:19:53.228Z,20.54
2018-06-04T06:20:53.123Z,20.53
2018-06-04T06:21:53.008Z,20.57
2018-06-04T06:22:52.921Z,20.53
2018-06-04T06:23:52.837Z,20.53
2018-06-04T06:24:52.751Z,20.58
2018-06-04T06:25:52.697Z,20.57
2018-06-04T06:26:52.584Z,20.73
2018-06-04T06:27:52.494Z,20.69
2018-06-04T06:28:53.045Z,20.71
2018-06-04T06:29:52.327Z,20.76
2018-06-04T06:30:52.295Z,20.76
2018-06-04T06:31:52.160Z,20.68
2018-06-04T06:32:52.071Z,20.72
2018-06-04T06:33:51.984Z,20.90
2018-06-04T06:34:51.900Z,21.06
2018-06-04T06:35:51.816Z,21.21
2018-06-04T06:36:51.762Z,21.38
2018-06-04T06:37:51.645Z,21.67
2018-06-04T06:38:51.563Z,21.86
2018-06-04T06:39:51.475Z,22.14
2018-06-04T06:40:51.391Z,22.48
2018-06-04T06:41:51.339Z,22.72
2018-06-04T06:42:51.222Z,23.04
2018-06-04T06:43:51.133Z,23.44
2018-06-04T06:44:51.054Z,23.53
2018-06-04T06:45:50.968Z,23.68
2018-06-04T06:46:50.920Z,23.82
2018-06-04T06:47:50.801Z,23.99
2018-06-04T06:48:50.720Z,24.19
2018-06-04T06:49:50.637Z,24.53
2018-06-04T06:50:50.555Z,24.82
2018-06-04T06:51:50.503Z,25.09
2018-06-04T06:52:50.393Z,25.34
2018-06-04T06:53:50.309Z,25.53
2018-06-04T06:54:50.226Z,25.71
2018-06-04T06:55:50.149Z,25.60
2018-06-04T06:56:50.091Z,24.84
2018-06-04T06:57:49.998Z,24.04
2018-06-04T06:58:50.002Z,23.90
2018-06-04T06:59:49.821Z,23.78
2018-06-04T07:00:49.738Z,23.89
2018-06-04T07:01:49.693Z,24.42
2018-06-04T07:02:49.582Z,24.70
2018-06-04T07:03:49.501Z,25.05
2018-06-04T07:04:49.417Z,25.36
2018-06-04T07:05:49.432Z,25.34
2018-06-04T07:06:49.292Z,25.12
2018-06-04T07:07:49.179Z,24.89
2018-06-04T07:08:49.104Z,24.49
2018-06-04T07:09:49.019Z,24.41
2018-06-04T07:10:48.943Z,24.63
2018-06-04T07:11:48.893Z,24.98
2018-06-04T07:12:48.873Z,24.93
2018-06-04T07:13:48.706Z,24.63
2018-06-04T07:14:48.628Z,24.37
2018-06-04T07:15:48.550Z,24.68
2018-06-04T07:16:48.497Z,25.01
2018-06-04T07:17:48.387Z,25.09
2018-06-04T07:18:48.319Z,25.30
2018-06-04T07:19:48.326Z,25.71
2018-06-04T07:20:48.154Z,26.08
2018-06-04T07:21:48.106Z,26.17
2018-06-04T07:22:48.546Z,26.21
2018-06-04T07:23:47.921Z,26.08
2018-06-04T07:24:47.843Z,25.94
2018-06-04T07:25:47.763Z,25.98
2018-06-04T07:26:47.868Z,26.16
2018-06-04T07:27:47.606Z,26.23
2018-06-04T07:28:47.534Z,26.54
2018-06-04T07:29:47.450Z,26.47
2018-06-04T07:30:47.373Z,26.28
2018-06-04T07:31:47.329Z,26.59
2018-06-04T07:32:47.219Z,26.27
2018-06-04T07:33:47.252Z,26.08
2018-06-04T07:34:47.119Z,25.96
2018-06-04T07:35:46.987Z,25.86
2018-06-04T07:36:46.941Z,25.94
2018-06-04T07:37:46.834Z,26.20
2018-06-04T07:38:46.756Z,26.06
2018-06-04T07:39:46.679Z,25.71
2018-06-04T07:40:46.695Z,25.64
2018-06-04T07:41:46.557Z,25.27
2018-06-04T07:42:46.460Z,25.27
2018-06-04T07:43:46.372Z,25.29
2018-06-04T07:44:46.292Z,25.01
2018-06-04T07:45:46.219Z,24.42
2018-06-04T07:46:46.142Z,24.06
2018-06-04T07:47:46.191Z,23.89
2018-06-04T07:48:45.983Z,24.24
2018-06-04T07:49:45.940Z,24.71
2018-06-04T07:50:45.832Z,25.01
2018-06-04T07:51:45.755Z,25.45
2018-06-04T07:52:45.702Z,25.61
2018-06-04T07:53:45.598Z,25.96
2018-06-04T07:54:45.611Z,26.36
2018-06-04T07:55:45.442Z,26.76
2018-06-04T07:56:45.365Z,27.06
2018-06-04T07:57:45.324Z,27.48
2018-06-04T07:58:45.211Z,27.72
2018-06-04T07:59:45.132Z,27.93
2018-06-04T08:00:45.098Z,28.02
2018-06-04T08:01:45.079Z,28.43
2018-06-04T08:02:44.931Z,28.21
2018-06-04T08:03:44.824Z,28.40
2018-06-04T08:04:44.751Z,27.72
2018-06-04T08:05:44.670Z,26.79
2018-06-04T08:06:44.594Z,26.01
2018-06-04T08:07:44.546Z,25.81
2018-06-04T08:08:44.441Z,25.42
2018-06-04T08:09:44.362Z,25.19
2018-06-04T08:10:44.289Z,25.05
2018-06-04T08:11:44.210Z,24.64
2018-06-04T08:12:44.160Z,24.48
2018-06-04T08:13:44.053Z,24.44
2018-06-04T08:14:43.979Z,24.11
2018-06-04T08:15:43.904Z,24.37
2018-06-04T08:16:44.586Z,24.41
2018-06-04T08:17:43.779Z,24.64
2018-06-04T08:18:43.674Z,25.19
2018-06-04T08:19:43.590Z,25.39
2018-06-04T08:20:43.512Z,25.14
2018-06-04T08:21:43.569Z,25.22
2018-06-04T08:22:43.387Z,24.86
2018-06-04T08:23:43.278Z,24.92
2018-06-04T08:24:43.202Z,24.80
2018-06-04T08:25:43.123Z,24.74
2018-06-04T08:26:43.042Z,24.67
2018-06-04T08:27:43.004Z,24.44
2018-06-04T08:28:42.888Z,24.26
2018-06-04T08:29:42.808Z,24.30
2018-06-04T08:30:42.732Z,24.11
2018-06-04T08:31:42.650Z,24.09
2018-06-04T08:32:42.607Z,23.89
2018-06-04T08:33:42.505Z,23.72
2018-06-04T08:34:42.414Z,23.71
2018-06-04T08:35:42.333Z,23.71
2018-06-04T08:36:42.258Z,23.63
2018-06-04T08:37:42.207Z,23.53
2018-06-04T08:38:42.095Z,23.67
2018-06-04T08:39:42.015Z,23.64
2018-06-04T08:40:41.937Z,23.79
2018-06-04T08:41:41.857Z,23.81
2018-06-04T08:42:41.808Z,23.96
2018-06-04T08:43:41.698Z,23.99
2018-06-04T08:44:41.618Z,24.00
2018-06-04T08:45:41.573Z,24.04
2018-06-04T08:46:41.457Z,24.04
2018-06-04T08:47:41.379Z,23.82
2018-06-04T08:48:41.327Z,23.94
2018-06-04T08:49:41.219Z,23.87
2018-06-04T08:50:41.142Z,23.84
2018-06-04T08:51:41.053Z,23.84
2018-06-04T08:52:40.976Z,23.77
2018-06-04T08:53:41.552Z,23.89
2018-06-04T08:54:40.816Z,23.90
2018-06-04T08:55:40.735Z,23.68
2018-06-04T08:56:40.661Z,23.79
2018-06-04T08:57:40.573Z,23.68
2018-06-04T08:58:40.522Z,23.63
2018-06-04T08:59:40.411Z,23.63
2018-06-04T09:00:40.330Z,23.56
2018-06-04T09:01:40.248Z,23.59
2018-06-04T09:02:40.168Z,23.52
2018-06-04T09:03:40.117Z,23.42
2018-06-04T09:04:40.013Z,23.31
2018-06-04T09:05:39.926Z,23.14
2018-06-04T09:06:39.841Z,23.14
2018-06-04T09:07:39.764Z,23.01
2018-06-04T09:08:39.728Z,23.01
2018-06-04T09:09:39.600Z,22.96
2018-06-04T09:10:39.517Z,23.12
2018-06-04T09:11:39.435Z,22.99
2018-06-04T09:12:39.352Z,22.99
2018-06-04T09:13:39.308Z,22.91
2018-06-04T09:14:39.196Z,22.99
2018-06-04T09:15:39.169Z,23.00
2018-06-04T09:16:39.030Z,23.11
2018-06-04T09:17:38.947Z,23.18
2018-06-04T09:18:38.901Z,23.26
2018-06-04T09:19:38.784Z,23.92
2018-06-04T09:20:38.705Z,24.24
2018-06-04T09:21:38.629Z,24.61
2018-06-04T09:22:38.539Z,24.92
2018-06-04T09:23:39.057Z,25.07
2018-06-04T09:24:38.376Z,24.87
2018-06-04T09:25:38.296Z,24.93
2018-06-04T09:26:38.214Z,25.51
2018-06-04T09:27:38.132Z,26.16
2018-06-04T09:28:38.083Z,26.64
2018-06-04T09:29:37.973Z,26.98
2018-06-04T09:30:37.888Z,27.02
2018-06-04T09:31:37.809Z,27.42
2018-06-04T09:32:37.732Z,27.71
2018-06-04T09:33:37.707Z,27.84
2018-06-04T09:34:37.569Z,27.96
2018-06-04T09:35:37.513Z,27.95
2018-06-04T09:36:37.405Z,28.17
2018-06-04T09:37:37.389Z,28.45
2018-06-04T09:38:37.283Z,28.74
2018-06-04T09:39:37.260Z,28.64
2018-06-04T09:40:37.091Z,28.38
2018-06-04T09:41:37.012Z,28.46
2018-06-04T09:42:36.934Z,28.51
2018-06-04T09:43:36.900Z,28.80
2018-06-04T09:44:36.775Z,28.57
2018-06-04T09:45:36.694Z,28.36
2018-06-04T09:46:36.710Z,27.72
2018-06-04T09:47:36.616Z,27.59
2018-06-04T09:48:36.493Z,27.25
2018-06-04T11:00:48.312Z,27.72
2018-06-04T11:01:48.193Z,28.06
2018-06-04T11:02:48.107Z,28.40
2018-06-04T11:03:48.025Z,28.76
2018-06-04T11:04:47.972Z,29.15
2018-06-04T11:05:47.858Z,29.29
2018-06-04T11:06:48.061Z,29.63
2018-06-04T11:07:47.698Z,29.99
2018-06-04T11:08:47.612Z,30.29
2018-06-04T11:09:47.565Z,30.57
2018-06-04T11:10:47.447Z,30.48
2018-06-04T11:11:47.371Z,30.48
2018-06-04T11:12:47.290Z,30.36
2018-06-04T11:13:47.307Z,29.92
2018-06-04T11:14:47.163Z,29.44
2018-06-04T11:15:47.056Z,29.32
2018-06-04T11:16:46.975Z,29.36
2018-06-04T11:17:46.896Z,29.76
2018-06-04T11:18:46.846Z,30.01
2018-06-04T11:19:46.767Z,30.19
2018-06-04T11:20:46.664Z,30.01
2018-06-04T11:21:46.594Z,30.13
2018-06-04T11:22:46.510Z,30.07
2018-06-04T11:23:46.433Z,30.16
2018-06-04T11:24:46.387Z,29.78
2018-06-04T11:25:46.339Z,29.95
2018-06-04T11:26:46.201Z,30.13
2018-06-04T11:27:46.219Z,30.30
2018-06-04T11:28:46.049Z,30.36
2018-06-04T11:29:45.975Z,30.15
2018-06-04T11:30:45.925Z,30.25
2018-06-04T11:31:45.834Z,30.42
2018-06-04T11:32:45.747Z,30.66
2018-06-04T11:33:45.668Z,30.67
2018-06-04T11:34:45.594Z,29.71
2018-06-04T11:35:45.551Z,29.15
2018-06-04T11:36:45.442Z,28.77
2018-06-04T11:37:45.368Z,28.50
2018-06-04T11:38:45.289Z,28.09
2018-06-04T11:39:45.219Z,28.01
2018-06-04T11:40:45.170Z,28.54
2018-06-04T11:41:45.064Z,28.85
2018-06-04T11:42:44.988Z,29.26
2018-06-04T11:43:44.912Z,29.44
2018-06-04T11:44:44.836Z,29.73
2018-06-04T11:45:44.789Z,30.16
2018-06-04T11:46:44.689Z,30.38
2018-06-04T11:47:44.611Z,30.75
2018-06-04T11:48:44.533Z,30.56
2018-06-04T11:49:44.460Z,30.38
2018-06-04T11:50:44.413Z,30.75
2018-06-04T11:51:44.310Z,30.67
2018-06-04T11:52:44.232Z,29.91
2018-06-04T11:53:44.157Z,29.94
2018-06-04T11:54:44.081Z,29.89
2018-06-04T11:55:44.039Z,29.37
2018-06-04T11:56:43.953Z,29.02
2018-06-04T11:57:43.855Z,28.85
2018-06-04T11:58:43.788Z,29.49
2018-06-04T11:59:43.706Z,29.76
2018-06-04T12:00:43.708Z,30.01
2018-06-04T12:01:43.562Z,29.95
2018-06-04T12:02:43.482Z,30.48
2018-06-04T12:03:43.405Z,30.83
2018-06-04T12:04:43.326Z,30.66
2018-06-04T12:05:43.289Z,30.82
2018-06-04T12:06:43.180Z,30.93
2018-06-04T12:07:43.104Z,31.12
2018-06-04T12:08:43.030Z,31.04
2018-06-04T12:09:42.955Z,30.46
2018-06-04T12:10:42.912Z,30.48
2018-06-04T12:11:42.869Z,30.60
2018-06-04T12:12:42.728Z,30.49
2018-06-04T12:13:42.656Z,30.21
2018-06-04T12:14:42.581Z,30.21
2018-06-04T12:15:42.538Z,30.21
2018-06-04T12:16:42.429Z,30.21
2018-06-04T12:17:42.356Z,30.23
2018-06-04T12:18:42.281Z,29.89
2018-06-04T12:19:42.208Z,30.25
2018-06-04T12:20:42.165Z,30.54
2018-06-04T12:21:42.055Z,30.46
2018-06-04T12:22:41.981Z,30.18
2018-06-04T12:23:41.911Z,30.04
2018-06-04T12:24:41.832Z,29.84
2018-06-04T12:25:41.789Z,29.95
2018-06-04T12:26:41.685Z,29.63
2018-06-04T12:27:41.610Z,29.45
2018-06-04T12:28:41.531Z,29.58
2018-06-04T12:29:41.459Z,29.58
2018-06-04T12:30:41.416Z,29.54
2018-06-04T12:31:41.310Z,29.62
2018-06-04T12:32:41.237Z,29.79
2018-06-04T12:33:41.162Z,29.64
2018-06-04T12:34:41.084Z,29.58
2018-06-04T12:35:41.043Z,29.67
2018-06-04T12:36:40.937Z,29.78
2018-06-04T12:37:40.867Z,29.95
2018-06-04T12:38:40.789Z,30.22
2018-06-04T12:39:40.712Z,30.34
2018-06-04T12:40:40.639Z,30.15
2018-06-04T12:41:40.597Z,30.26
2018-06-04T12:42:40.489Z,30.19
2018-06-04T12:43:40.416Z,30.16
2018-06-04T12:44:40.340Z,30.13
2018-06-04T12:45:40.268Z,30.13
2018-06-04T12:46:40.221Z,30.00
2018-06-04T12:47:40.115Z,29.76
2018-06-04T12:48:40.040Z,29.51
2018-06-04T12:49:39.964Z,29.27
2018-06-04T12:50:39.984Z,29.25
2018-06-04T12:51:39.850Z,29.07
2018-06-04T12:52:39.740Z,29.03
2018-06-04T12:53:39.669Z,29.27
2018-06-04T12:54:39.591Z,29.03
2018-06-04T12:55:39.518Z,29.02
2018-06-04T12:56:39.480Z,28.79
2018-06-04T12:57:39.468Z,28.87
2018-06-04T12:58:39.293Z,28.67
2018-06-04T12:59:39.223Z,28.61
2018-06-04T13:00:39.146Z,28.43
2018-06-04T13:01:39.103Z,28.50
2018-06-04T13:02:38.996Z,28.30
2018-06-04T13:03:38.923Z,28.35
2018-06-04T13:04:38.985Z,28.42
2018-06-04T13:05:38.773Z,28.27
2018-06-04T13:06:38.728Z,28.24
2018-06-04T13:07:38.628Z,27.63
2018-06-04T13:08:38.548Z,27.69
2018-06-04T13:09:38.474Z,27.65
2018-06-04T13:10:38.406Z,27.52
2018-06-04T13:11:38.463Z,27.43
2018-06-04T13:12:38.248Z,27.50
2018-06-04T13:13:38.176Z,27.53
2018-06-04T13:14:38.101Z,27.52
2018-06-04T13:15:38.026Z,27.58
2018-06-04T13:16:37.977Z,27.53
2018-06-04T13:17:37.877Z,27.34
2018-06-04T13:18:37.891Z,27.34
2018-06-04T13:19:37.722Z,27.33
2018-06-04T13:20:37.643Z,27.18
2018-06-04T13:21:37.633Z,27.08
2018-06-04T13:22:37.491Z,27.13
2018-06-04T13:23:37.419Z,27.16
2018-06-04T13:24:37.339Z,27.15
2018-06-04T13:25:37.358Z,27.08
2018-06-04T13:26:37.219Z,27.05
2018-06-04T13:27:37.137Z,27.02
2018-06-04T13:28:37.032Z,26.88
2018-06-04T13:29:36.952Z,27.01
2018-06-04T13:30:36.874Z,26.79
2018-06-04T13:31:36.829Z,26.78
2018-06-04T13:32:36.816Z,26.46
2018-06-04T13:33:36.644Z,26.39
2018-06-04T13:34:36.588Z,26.47
2018-06-04T13:35:36.485Z,26.47
2018-06-04T13:36:36.442Z,26.57
2018-06-04T13:37:36.330Z,26.71
2018-06-04T13:38:36.253Z,26.88
2018-06-04T13:39:36.295Z,27.06
2018-06-04T13:40:36.095Z,27.08
2018-06-04T13:41:36.053Z,27.16
2018-06-04T13:42:35.938Z,27.27
2018-06-04T13:43:35.863Z,27.16
2018-06-04T13:44:35.779Z,27.21
2018-06-04T13:45:35.704Z,27.16
2018-06-04T13:46:35.717Z,27.24
2018-06-04T13:47:35.578Z,27.18
2018-06-04T13:48:35.464Z,27.12
2018-06-04T13:49:35.387Z,27.05
2018-06-04T13:50:35.308Z,27.12
2018-06-04T13:51:35.231Z,27.11
2018-06-04T13:52:35.178Z,27.11
2018-06-04T13:53:35.162Z,27.08
2018-06-04T13:54:34.989Z,27.05
2018-06-04T13:55:34.915Z,27.09
2018-06-04T13:56:34.836Z,27.11
2018-06-04T13:57:34.784Z,27.11
2018-06-04T13:58:34.671Z,27.06
2018-06-04T13:59:34.727Z,27.11
2018-06-04T14:00:34.512Z,27.05
2018-06-04T14:01:34.433Z,27.08
2018-06-04T14:02:34.387Z,27.15